Time;durP1;ratioP1;P1;durP2;ratioP2;P2;SDS_P1;SDS_P2;PMS_P1;PMS_P2;Temp;Humidity;BMP_temperature;BMP_pressure;BME280_temperature;BME280_humidity;BME280_pressure;Samples;Min_cycle;Max_cycle;Signal;HPM_P1;HPM_P2
2021/11/29 00:02:01;;;;;;;;;;;;;;;9.05;59.52;98919.63;5000861;27;98758;-67
2021/11/29 00:04:27;;;;;;;;;;;;;;;9.05;59.52;98920.41;4983310;27;97882;-58
2021/11/29 00:06:53;;;;;;;;;;;;;;;9.04;59.61;98918.81;5004465;27;126999;-67
2021/11/29 00:09:19;;;;;;;;;;;;;;;9.04;59.54;98909.97;5004414;27;127179;-58
2021/11/29 00:11:45;;;;;;;;;;;;;;;9.02;59.28;98907.56;5001250;27;128393;-67
2021/11/29 00:14:11;;;;;;;;;;;;;;;9.01;59.44;98914.03;5002682;27;97825;-67
2021/11/29 00:16:37;;;;;;;;;;;;;;;9.00;59.59;98917.81;5004604;27;127880;-67
2021/11/29 00:19:04;;;;;;;;;;;;;;;8.99;59.62;98920.78;5004643;27;128790;-58
2021/11/29 00:21:32;;;;;;;;;;;;;;;8.99;59.58;98936.91;5004989;27;98232;-57
2021/11/29 00:23:58;;;;;;;;;;;;;;;8.96;59.07;98941.00;4999272;27;102803;-67
2021/11/29 00:26:23;;;;;;;;;;;;;;;8.96;59.77;98949.06;5006950;27;125096;-58
2021/11/29 00:28:49;;;;;;;;;;;;;;;8.94;59.72;98948.53;4986201;27;128233;-67
2021/11/29 00:31:15;;;;;;;;;;;;;;;8.95;59.33;98954.72;5006331;27;101840;-67
2021/11/29 00:33:41;;;;;;;;;;;;;;;8.94;59.81;98958.50;4997549;27;97881;-57
2021/11/29 00:36:08;;;;;;;;;;;;;;;8.92;59.31;98961.50;5004186;27;128932;-57
2021/11/29 00:38:33;;;;;;;;;;;;;;;8.92;59.68;98957.97;4986049;27;98112;-67
2021/11/29 00:41:00;;;;;;;;;;;;;;;8.91;59.22;98969.81;5005397;27;109428;-58
2021/11/29 00:43:25;;;;;;;;;;;;;;;8.89;59.35;98963.97;4996611;27;117586;-67
2021/11/29 00:45:51;;;;;;;;;;;;;;;8.89;59.49;98963.97;5003675;27;122607;-58
2021/11/29 00:48:17;;;;;;;;;;;;;;;8.88;59.71;98968.50;5005150;27;99129;-67
2021/11/29 00:50:43;;;;;;;;;;;;;;;8.87;59.49;98972.28;5004939;27;128142;-58
2021/11/29 00:53:10;;;;;;;;;;;;;;;8.85;59.51;98969.91;4996494;27;117866;-58
2021/11/29 00:55:37;;;;;;;;;;;;;;;8.85;59.30;98971.81;5004378;27;98864;-67
2021/11/29 00:58:03;;;;;;;;;;;;;;;8.85;59.37;98974.50;5004656;27;121159;-58
2021/11/29 01:00:29;;;;;;;;;;;;;;;8.85;59.08;98977.97;5003960;27;116277;-58
2021/11/29 01:02:55;;;;;;;;;;;;;;;8.86;59.05;98986.81;4995235;27;111501;-57
2021/11/29 01:05:21;;;;;;;;;;;;;;;8.87;58.72;98988.41;5004063;27;98353;-67
2021/11/29 01:07:47;;;;;;;;;;;;;;;8.88;59.02;98998.06;5006650;27;110693;-58
2021/11/29 01:10:13;;;;;;;;;;;;;;;8.88;58.66;98990.00;5005130;27;128433;-68
2021/11/29 01:12:39;;;;;;;;;;;;;;;8.89;59.23;98993.53;4996572;27;97871;-58
2021/11/29 01:15:06;;;;;;;;;;;;;;;8.91;58.97;98996.69;5002741;27;117512;-58
2021/11/29 01:17:32;;;;;;;;;;;;;;;8.91;58.73;98999.38;5004660;27;118042;-67
2021/11/29 01:19:58;;;;;;;;;;;;;;;8.93;58.90;98994.53;5004833;27;98185;-58
2021/11/29 01:22:24;;;;;;;;;;;;;;;8.93;59.48;98981.09;4997043;27;116608;-57
2021/11/29 01:24:50;;;;;;;;;;;;;;;8.94;58.72;98990.75;5002663;27;128798;-58
2021/11/29 01:27:15;;;;;;;;;;;;;;;8.95;59.01;98987.75;5003986;27;102038;-67
2021/11/29 01:29:41;;;;;;;;;;;;;;;8.95;58.69;98989.66;5004183;27;127515;-58
2021/11/29 01:32:07;;;;;;;;;;;;;;;8.97;59.64;98984.78;4998820;27;118147;-57
2021/11/29 01:34:33;;;;;;;;;;;;;;;8.97;59.21;98990.16;5001788;27;122775;-57
2021/11/29 01:36:59;;;;;;;;;;;;;;;8.97;59.33;98985.59;5004826;27;98963;-67
2021/11/29 01:39:25;;;;;;;;;;;;;;;8.97;58.86;98984.78;5004505;27;113065;-67
2021/11/29 01:41:51;;;;;;;;;;;;;;;8.98;59.19;98986.38;4979294;28;117152;-58
2021/11/29 01:44:17;;;;;;;;;;;;;;;8.97;58.86;98988.28;4993913;27;98804;-58
2021/11/29 01:46:45;;;;;;;;;;;;;;;8.97;58.68;98990.97;5002149;27;127546;-58
2021/11/29 01:49:11;;;;;;;;;;;;;;;8.98;58.98;98997.94;5005076;27;98491;-67
2021/11/29 01:51:37;;;;;;;;;;;;;;;8.98;59.23;98997.94;5002370;27;108461;-58
2021/11/29 01:54:03;;;;;;;;;;;;;;;8.98;59.39;99000.63;4997583;27;121509;-57
2021/11/29 01:56:28;;;;;;;;;;;;;;;8.99;59.15;99001.41;5002671;27;118428;-67
2021/11/29 01:58:54;;;;;;;;;;;;;;;8.99;58.96;99002.22;5003068;27;127128;-67
2021/11/29 02:01:21;;;;;;;;;;;;;;;9.00;59.51;99000.31;5005342;27;98030;-58
2021/11/29 02:03:49;;;;;;;;;;;;;;;9.00;59.24;99003.81;4995907;27;98266;-67
2021/11/29 02:06:15;;;;;;;;;;;;;;;9.01;58.96;98999.25;4986889;27;98074;-67
2021/11/29 02:08:41;;;;;;;;;;;;;;;9.01;59.52;98996.56;5002559;27;129203;-67
2021/11/29 02:11:07;;;;;;;;;;;;;;;9.01;58.77;99001.94;5004166;27;116832;-67
2021/11/29 02:13:33;;;;;;;;;;;;;;;9.02;59.04;98998.16;4995173;27;126720;-58
2021/11/29 02:15:59;;;;;;;;;;;;;;;9.02;58.90;99004.31;4984186;27;128580;-66
2021/11/29 02:18:29;;;;;;;;;;;;;;;9.03;59.26;99008.59;4985897;27;98326;-67
2021/11/29 02:21:15;;;;;;;;;;;;;;;9.04;59.75;99006.72;5004025;27;97792;-57
2021/11/29 02:23:48;;;;;;;;;;;;;;;9.04;59.22;99017.47;4995536;27;98784;-67
2021/11/29 02:26:14;;;;;;;;;;;;;;;9.05;59.30;99017.19;5005063;27;119917;-58
2021/11/29 02:28:42;;;;;;;;;;;;;;;9.06;59.11;99015.28;5004857;27;97882;-67
2021/11/29 02:31:10;;;;;;;;;;;;;;;9.07;59.29;99020.34;5004938;27;97847;-58
2021/11/29 02:33:36;;;;;;;;;;;;;;;9.08;59.23;99015.81;4975067;27;98643;-67
2021/11/29 02:36:02;;;;;;;;;;;;;;;9.09;59.61;99015.50;5003015;27;124153;-67
2021/11/29 02:38:28;;;;;;;;;;;;;;;9.10;59.18;99016.31;5002296;27;97856;-58
2021/11/29 02:40:54;;;;;;;;;;;;;;;9.12;59.04;99021.38;5004548;27;98001;-58
2021/11/29 02:43:20;;;;;;;;;;;;;;;9.13;58.88;99033.75;4994191;27;126354;-67
2021/11/29 02:45:46;;;;;;;;;;;;;;;9.14;58.99;99029.97;5003355;27;128541;-58
2021/11/29 02:48:12;;;;;;;;;;;;;;;9.13;59.77;99029.16;5002190;27;97958;-66
2021/11/29 02:50:38;;;;;;;;;;;;;;;9.14;58.86;99035.34;4984993;27;115772;-57
2021/11/29 02:53:05;;;;;;;;;;;;;;;9.15;59.25;99028.84;4976385;27;99884;-58
2021/11/29 02:55:31;;;;;;;;;;;;;;;9.16;59.14;99030.47;5001656;27;115992;-58
2021/11/29 02:57:57;;;;;;;;;;;;;;;9.16;59.17;99025.09;5004124;27;98096;-57
2021/11/29 03:00:23;;;;;;;;;;;;;;;9.17;58.99;99032.06;5002690;27;118679;-57
2021/11/29 03:03:06;;;;;;;;;;;;;;;9.17;59.39;99021.31;4993850;27;98444;-66
2021/11/29 03:05:32;;;;;;;;;;;;;;;9.17;59.73;99029.38;5004098;27;98502;-67
2021/11/29 03:07:58;;;;;;;;;;;;;;;9.17;59.63;99035.56;5003380;27;98147;-57
2021/11/29 03:10:24;;;;;;;;;;;;;;;9.17;59.07;99035.56;5003713;27;116159;-58
2021/11/29 03:12:50;;;;;;;;;;;;;;;9.15;59.42;99026.97;5000428;27;99069;-68
2021/11/29 03:15:15;;;;;;;;;;;;;;;9.15;59.21;99035.03;5003292;27;105503;-67
2021/11/29 03:17:42;;;;;;;;;;;;;;;9.17;59.75;99040.94;4992347;27;128225;-67
2021/11/29 03:20:14;;;;;;;;;;;;;;;9.18;59.35;99042.53;4985142;27;110470;-67
2021/11/29 03:22:40;;;;;;;;;;;;;;;9.19;59.55;99046.00;5002736;27;109765;-66
2021/11/29 03:25:10;;;;;;;;;;;;;;;9.19;59.05;99046.81;5004595;27;98823;-60
2021/11/29 03:27:37;;;;;;;;;;;;;;;9.19;59.27;99044.09;5002781;27;98009;-58
2021/11/29 03:30:03;;;;;;;;;;;;;;;9.20;58.88;99051.09;5003852;27;97854;-68
2021/11/29 03:32:29;;;;;;;;;;;;;;;9.20;59.03;99048.41;4994211;27;121019;-57
2021/11/29 03:34:55;;;;;;;;;;;;;;;9.21;58.95;99043.84;5003661;27;98539;-58
2021/11/29 03:37:22;;;;;;;;;;;;;;;9.19;59.67;99049.50;4999890;27;124213;-65
2021/11/29 03:39:48;;;;;;;;;;;;;;;9.21;59.00;99049.22;5003650;27;97906;-57
2021/11/29 03:42:14;;;;;;;;;;;;;;;9.21;59.68;99036.56;4995846;27;107504;-58
2021/11/29 03:44:40;;;;;;;;;;;;;;;9.23;59.44;99038.94;4981092;27;128075;-58
2021/11/29 03:47:06;;;;;;;;;;;;;;;9.22;59.14;99040.84;5002905;27;103634;-57
2021/11/29 03:49:32;;;;;;;;;;;;;;;9.22;59.33;99035.47;5004297;27;97836;-58
2021/11/29 03:51:58;;;;;;;;;;;;;;;9.24;59.32;99040.56;4997974;27;118998;-67
2021/11/29 03:54:24;;;;;;;;;;;;;;;9.23;59.46;99034.38;4999222;27;101137;-57
2021/11/29 03:56:50;;;;;;;;;;;;;;;9.25;59.33;99036.78;5000340;27;128481;-57
2021/11/29 03:59:16;;;;;;;;;;;;;;;9.24;59.41;99036.00;5003448;27;98038;-66
2021/11/29 04:01:42;;;;;;;;;;;;;;;9.26;59.75;99030.31;4999853;27;126804;-67
2021/11/29 04:04:08;;;;;;;;;;;;;;;9.25;59.33;99029.50;4995048;27;118060;-66
2021/11/29 04:06:34;;;;;;;;;;;;;;;9.26;59.35;99031.09;5000569;27;126937;-61
2021/11/29 04:09:02;;;;;;;;;;;;;;;9.27;59.26;99029.22;5002217;27;98121;-58
2021/11/29 04:11:28;;;;;;;;;;;;;;;9.27;59.44;99037.28;5002298;27;98385;-67
2021/11/29 04:13:54;;;;;;;;;;;;;;;9.28;59.33;99036.19;4996613;27;127955;-68
2021/11/29 04:16:20;;;;;;;;;;;;;;;9.27;59.44;99039.97;5005319;27;128538;-58
2021/11/29 04:18:46;;;;;;;;;;;;;;;9.28;59.20;99037.00;4985690;27;115615;-58
2021/11/29 04:21:14;;;;;;;;;;;;;;;9.30;59.57;99040.19;4987430;27;98297;-58
2021/11/29 04:23:43;;;;;;;;;;;;;;;9.30;59.29;99042.06;4979104;27;98295;-58
2021/11/29 04:26:12;;;;;;;;;;;;;;;9.30;58.91;99042.06;4986475;27;98011;-58
2021/11/29 04:28:38;;;;;;;;;;;;;;;9.31;60.04;99047.19;4987311;27;97863;-67
2021/11/29 04:31:04;;;;;;;;;;;;;;;9.32;59.92;99047.97;5006778;27;98286;-58
2021/11/29 04:33:29;;;;;;;;;;;;;;;9.32;59.95;99046.06;4995388;27;127815;-67
2021/11/29 04:35:55;;;;;;;;;;;;;;;9.33;59.24;99049.56;5003838;27;127353;-57
2021/11/29 04:38:21;;;;;;;;;;;;;;;9.34;59.31;99051.94;5005180;27;119720;-68
2021/11/29 04:40:47;;;;;;;;;;;;;;;9.34;59.02;99051.16;5004017;27;127987;-58
2021/11/29 04:43:13;;;;;;;;;;;;;;;9.34;59.64;99046.56;4995410;27;127150;-58
2021/11/29 04:45:39;;;;;;;;;;;;;;;9.35;59.51;99050.06;5004760;27;98648;-57
2021/11/29 04:48:05;;;;;;;;;;;;;;;9.36;59.92;99046.28;5004750;27;97863;-58
2021/11/29 04:50:31;;;;;;;;;;;;;;;9.36;60.00;99043.59;5004110;27;127833;-58
2021/11/29 04:52:57;;;;;;;;;;;;;;;9.38;59.59;99048.69;4978003;27;127672;-66
2021/11/29 04:55:23;;;;;;;;;;;;;;;9.37;59.04;99053.25;5005781;27;126685;-67
2021/11/29 04:57:49;;;;;;;;;;;;;;;9.36;59.24;99054.34;5005423;27;102628;-58
2021/11/29 05:00:16;;;;;;;;;;;;;;;9.38;59.44;99064.81;5004279;27;127186;-67
2021/11/29 05:02:42;;;;;;;;;;;;;;;9.37;59.12;99064.03;4995805;27;115296;-67
2021/11/29 05:05:08;;;;;;;;;;;;;;;9.38;59.32;99062.91;5005037;27;127551;-67
2021/11/29 05:07:34;;;;;;;;;;;;;;;9.37;59.54;99061.31;5005351;27;105283;-58
2021/11/29 05:10:00;;;;;;;;;;;;;;;9.37;59.69;99060.53;5005568;27;128125;-67
2021/11/29 05:12:26;;;;;;;;;;;;;;;9.37;59.21;99064.03;4996838;27;127949;-58
2021/11/29 05:14:52;;;;;;;;;;;;;;;9.36;59.55;99062.44;4997138;27;98373;-66
2021/11/29 05:17:18;;;;;;;;;;;;;;;9.37;59.96;99064.03;5005819;27;98166;-67
2021/11/29 05:19:44;;;;;;;;;;;;;;;9.38;59.89;99076.38;5004564;27;98910;-66
2021/11/29 05:22:10;;;;;;;;;;;;;;;9.38;60.03;99079.06;4999410;27;98881;-67
2021/11/29 05:24:36;;;;;;;;;;;;;;;9.38;59.60;99078.25;5000281;27;126617;-58
2021/11/29 05:27:04;;;;;;;;;;;;;;;9.40;59.95;99079.56;5003091;27;117065;-67
2021/11/29 05:29:30;;;;;;;;;;;;;;;9.40;59.73;99081.47;4986088;27;98905;-67
2021/11/29 05:31:56;;;;;;;;;;;;;;;9.41;59.57;99089.22;5003459;27;106045;-67
2021/11/29 05:34:21;;;;;;;;;;;;;;;9.40;59.76;99082.25;5004022;27;126188;-65
2021/11/29 05:36:48;;;;;;;;;;;;;;;9.40;59.75;99087.66;5007339;27;97738;-67
2021/11/29 05:39:15;;;;;;;;;;;;;;;9.41;60.25;99091.94;5006321;27;98909;-67
2021/11/29 05:41:41;;;;;;;;;;;;;;;9.42;59.97;99104.28;5005018;27;98968;-67
2021/11/29 05:44:07;;;;;;;;;;;;;;;9.42;59.80;99104.28;5000017;27;118193;-67
2021/11/29 05:46:33;;;;;;;;;;;;;;;9.42;59.40;99106.97;4989275;27;98781;-67
2021/11/29 05:49:01;;;;;;;;;;;;;;;9.41;59.67;99102.69;5005880;27;126894;-66
2021/11/29 05:51:27;;;;;;;;;;;;;;;9.42;59.96;99112.34;5007135;27;98849;-65
2021/11/29 05:53:53;;;;;;;;;;;;;;;9.44;59.78;99117.44;4998673;27;97996;-67
2021/11/29 05:56:19;;;;;;;;;;;;;;;9.44;60.02;99117.44;5006551;27;107928;-66
2021/11/29 05:58:45;;;;;;;;;;;;;;;9.44;59.77;99117.44;5004024;27;98106;-67
2021/11/29 06:01:11;;;;;;;;;;;;;;;9.43;59.50;99121.22;5005255;27;107209;-67
2021/11/29 06:03:37;;;;;;;;;;;;;;;9.44;60.08;99129.00;4970711;27;127570;-67
2021/11/29 06:06:03;;;;;;;;;;;;;;;9.45;60.29;99127.09;5005816;27;98884;-66
2021/11/29 06:08:29;;;;;;;;;;;;;;;9.45;60.25;99121.72;4965122;28;121444;-66
2021/11/29 06:10:55;;;;;;;;;;;;;;;9.44;60.25;99133.59;4990294;27;128654;-67
2021/11/29 06:13:21;;;;;;;;;;;;;;;9.45;59.63;99132.50;4995091;27;128446;-67
2021/11/29 06:15:47;;;;;;;;;;;;;;;9.46;59.84;99142.16;5005961;27;97757;-67
2021/11/29 06:18:13;;;;;;;;;;;;;;;9.46;59.67;99139.47;5004263;27;98472;-66
2021/11/29 06:20:39;;;;;;;;;;;;;;;9.45;60.33;99140.56;5002974;27;98374;-67
2021/11/29 06:23:05;;;;;;;;;;;;;;;9.46;59.48;99142.94;4992498;27;99541;-67
2021/11/29 06:25:31;;;;;;;;;;;;;;;9.47;60.23;99151.81;5001469;27;98001;-66
2021/11/29 06:27:57;;;;;;;;;;;;;;;9.46;59.77;99159.09;5002519;27;98283;-67
2021/11/29 06:30:24;;;;;;;;;;;;;;;9.47;59.67;99167.94;5001575;27;110691;-66
2021/11/29 06:32:50;;;;;;;;;;;;;;;9.47;60.42;99163.41;4991726;27;117382;-68
2021/11/29 06:35:16;;;;;;;;;;;;;;;9.48;59.57;99169.56;5001472;27;104294;-67
2021/11/29 06:37:45;;;;;;;;;;;;;;;9.48;59.63;99173.06;5000587;27;113779;-66
2021/11/29 06:40:12;;;;;;;;;;;;;;;9.49;59.67;99176.53;5001672;27;118948;-67
2021/11/29 06:42:38;;;;;;;;;;;;;;;9.49;59.45;99171.97;4993489;27;118874;-68
2021/11/29 06:45:04;;;;;;;;;;;;;;;9.49;60.12;99182.72;5001817;27;112600;-66
2021/11/29 06:47:30;;;;;;;;;;;;;;;9.50;59.83;99178.94;5000456;27;117178;-67
2021/11/29 06:49:56;;;;;;;;;;;;;;;9.51;59.77;99183.25;5001079;27;127388;-67
2021/11/29 06:52:22;;;;;;;;;;;;;;;9.51;59.85;99180.56;4985055;27;127684;-67
2021/11/29 06:54:50;;;;;;;;;;;;;;;9.53;59.67;99186.44;4999764;27;118035;-67
2021/11/29 06:57:16;;;;;;;;;;;;;;;9.52;60.45;99182.16;5000483;27;99014;-58
2021/11/29 06:59:42;;;;;;;;;;;;;;;9.52;59.91;99187.53;4999256;27;116463;-58
2021/11/29 07:02:08;;;;;;;;;;;;;;;9.53;59.83;99191.81;4993516;27;97867;-58
2021/11/29 07:04:34;;;;;;;;;;;;;;;9.53;60.09;99196.38;4996794;27;98692;-67
2021/11/29 07:07:01;;;;;;;;;;;;;;;9.55;59.74;99195.03;4999183;27;99050;-58
2021/11/29 07:09:27;;;;;;;;;;;;;;;9.56;59.48;99198.50;5000135;27;98254;-58
2021/11/29 07:11:53;;;;;;;;;;;;;;;9.56;59.52;99199.31;4995933;27;98363;-58
2021/11/29 07:14:19;;;;;;;;;;;;;;;9.57;60.22;99192.03;4994856;27;107488;-68
2021/11/29 07:16:48;;;;;;;;;;;;;;;9.58;59.66;99196.31;4981452;27;116827;-58
2021/11/29 07:19:15;;;;;;;;;;;;;;;9.60;59.81;99199.53;5001498;27;98562;-68
2021/11/29 07:21:41;;;;;;;;;;;;;;;9.59;59.61;99198.72;4998376;27;98405;-67
2021/11/29 07:24:09;;;;;;;;;;;;;;;9.62;60.02;99196.53;4993543;27;97929;-67
2021/11/29 07:26:35;;;;;;;;;;;;;;;9.63;60.09;99207.03;4999459;27;98435;-58
2021/11/29 07:29:01;;;;;;;;;;;;;;;9.65;59.86;99209.41;5001067;27;98700;-67
2021/11/29 07:31:27;;;;;;;;;;;;;;;9.68;60.34;99216.91;4998213;27;110985;-58
2021/11/29 07:33:53;;;;;;;;;;;;;;;9.72;59.85;99217.91;4991143;27;118683;-58
2021/11/29 07:36:19;;;;;;;;;;;;;;;9.77;59.85;99213.25;4998078;27;128519;-59
2021/11/29 07:38:45;;;;;;;;;;;;;;;9.84;59.32;99213.69;4998496;27;128357;-58
2021/11/29 07:41:11;;;;;;;;;;;;;;;9.92;60.14;99214.91;4998893;27;97870;-58
2021/11/29 07:43:37;;;;;;;;;;;;;;;9.94;59.26;99214.63;4991643;27;97918;-58
2021/11/29 07:46:03;;;;;;;;;;;;;;;9.97;59.53;99220.22;4998802;27;128842;-58
2021/11/29 07:48:29;;;;;;;;;;;;;;;9.99;59.75;99223.44;4999544;27;111448;-58
2021/11/29 07:50:55;;;;;;;;;;;;;;;10.05;59.37;99221.44;5001794;27;128264;-68
2021/11/29 07:53:21;;;;;;;;;;;;;;;10.11;59.67;99216.78;4993514;27;119514;-59
2021/11/29 07:55:47;;;;;;;;;;;;;;;10.08;59.23;99226.25;5003083;27;98717;-59
2021/11/29 07:58:13;;;;;;;;;;;;;;;10.10;59.76;99226.78;5001677;27;126938;-68
2021/11/29 08:00:39;;;;;;;;;;;;;;;10.11;59.57;99231.06;5001051;27;98415;-58
2021/11/29 08:03:06;;;;;;;;;;;;;;;10.12;59.51;99234.53;4992612;27;97872;-59
2021/11/29 08:05:32;;;;;;;;;;;;;;;10.14;60.02;99238.56;5000018;27;98448;-58
2021/11/29 08:08:00;;;;;;;;;;;;;;;10.13;59.68;99236.94;4981932;27;98513;-58
2021/11/29 08:10:26;;;;;;;;;;;;;;;10.14;59.94;99243.94;4999847;27;97834;-59
2021/11/29 08:12:52;;;;;;;;;;;;;;;10.15;59.58;99248.22;4992794;27;98084;-58
2021/11/29 08:15:18;;;;;;;;;;;;;;;10.18;60.28;99247.63;4998309;27;120488;-58
2021/11/29 08:17:44;;;;;;;;;;;;;;;10.21;60.07;99247.03;4998635;27;117447;-58
2021/11/29 08:20:10;;;;;;;;;;;;;;;10.25;59.96;99247.28;4999431;27;126943;-58
2021/11/29 08:22:36;;;;;;;;;;;;;;;10.29;59.42;99246.38;4991443;27;98214;-59
2021/11/29 08:25:03;;;;;;;;;;;;;;;10.32;59.56;99251.19;4984114;27;98488;-58
2021/11/29 08:27:32;;;;;;;;;;;;;;;10.36;59.96;99253.31;4980363;27;101812;-58
2021/11/29 08:29:58;;;;;;;;;;;;;;;10.35;60.11;99263.28;5000499;27;97988;-58
2021/11/29 08:32:24;;;;;;;;;;;;;;;10.37;59.80;99262.97;4991638;27;117121;-58
2021/11/29 08:34:50;;;;;;;;;;;;;;;10.37;59.57;99263.78;4998755;27;100092;-58
2021/11/29 08:37:16;;;;;;;;;;;;;;;10.37;59.74;99263.78;4998473;27;128647;-59
2021/11/29 08:39:41;;;;;;;;;;;;;;;10.37;60.32;99266.47;4999736;27;97933;-58
2021/11/29 08:42:07;;;;;;;;;;;;;;;10.37;59.76;99263.78;4993706;27;98112;-58
2021/11/29 08:44:33;;;;;;;;;;;;;;;10.38;59.59;99269.97;4995918;27;127942;-58
2021/11/29 08:46:59;;;;;;;;;;;;;;;10.40;59.70;99275.88;4999384;27;101393;-58
2021/11/29 08:49:25;;;;;;;;;;;;;;;10.38;60.35;99275.38;4999554;27;99023;-58
2021/11/29 08:51:52;;;;;;;;;;;;;;;10.40;59.81;99278.56;4995755;27;118172;-58
2021/11/29 08:54:18;;;;;;;;;;;;;;;10.41;60.52;99282.84;4994767;27;98446;-58
2021/11/29 08:56:46;;;;;;;;;;;;;;;10.43;60.60;99284.16;4999853;27;98504;-59
2021/11/29 08:59:15;;;;;;;;;;;;;;;10.44;60.03;99285.75;4981285;27;98605;-58
2021/11/29 09:01:41;;;;;;;;;;;;;;;10.44;60.43;99283.06;4998141;27;100709;-58
2021/11/29 09:04:07;;;;;;;;;;;;;;;10.44;60.14;99290.34;4994992;27;103392;-58
2021/11/29 09:06:33;;;;;;;;;;;;;;;10.44;60.05;99290.34;4982461;27;98612;-59
2021/11/29 09:08:59;;;;;;;;;;;;;;;10.45;59.85;99295.47;5000860;27;125578;-66
2021/11/29 09:11:25;;;;;;;;;;;;;;;10.48;60.38;99296.75;5001354;27;117480;-58
2021/11/29 09:13:51;;;;;;;;;;;;;;;10.51;60.62;99298.84;4992466;27;112748;-58
2021/11/29 09:16:17;;;;;;;;;;;;;;;10.53;60.07;99299.34;4998906;27;122109;-58
2021/11/29 09:18:43;;;;;;;;;;;;;;;10.52;60.19;99303.13;4982830;27;124991;-68
2021/11/29 09:21:19;;;;;;;;;;;;;;;10.54;60.15;99306.34;5003180;27;97811;-68
2021/11/29 09:23:45;;;;;;;;;;;;;;;10.54;60.11;99304.44;4994119;27;99922;-68
2021/11/29 09:26:11;;;;;;;;;;;;;;;10.55;60.69;99303.34;5003171;27;98432;-67
2021/11/29 09:28:38;;;;;;;;;;;;;;;10.61;60.13;99306.78;5002735;27;98109;-67
2021/11/29 09:31:04;;;;;;;;;;;;;;;10.73;59.83;99299.03;5003249;27;97869;-67
2021/11/29 09:33:30;;;;;;;;;;;;;;;10.81;59.74;99292.16;4993656;27;98310;-67
2021/11/29 09:35:56;;;;;;;;;;;;;;;10.96;59.34;99291.84;5001329;27;120649;-68
2021/11/29 09:38:22;;;;;;;;;;;;;;;11.11;59.53;99287.28;5001670;27;98301;-68
2021/11/29 09:40:48;;;;;;;;;;;;;;;11.25;59.39;99291.59;5002162;27;117554;-68
2021/11/29 09:43:15;;;;;;;;;;;;;;;11.29;59.58;99299.88;4984831;27;105070;-67
2021/11/29 09:45:43;;;;;;;;;;;;;;;11.28;59.41;99296.38;5002030;27;112897;-68
2021/11/29 09:48:09;;;;;;;;;;;;;;;11.29;59.53;99297.19;5001856;27;98260;-67
2021/11/29 09:50:36;;;;;;;;;;;;;;;11.34;59.24;99299.78;5002982;27;98632;-67
2021/11/29 09:53:02;;;;;;;;;;;;;;;11.42;59.45;99299.06;4994135;27;98139;-68
2021/11/29 09:55:28;;;;;;;;;;;;;;;11.44;59.20;99293.38;5001904;27;122770;-67
2021/11/29 09:57:56;;;;;;;;;;;;;;;11.48;59.28;99291.69;5002245;27;97972;-67
2021/11/29 10:00:25;;;;;;;;;;;;;;;11.51;59.24;99291.88;5002982;27;100153;-68
2021/11/29 10:02:51;;;;;;;;;;;;;;;11.54;59.62;99290.47;4974720;27;98320;-67
2021/11/29 10:05:18;;;;;;;;;;;;;;;11.55;59.29;99290.19;5001615;27;122573;-67
2021/11/29 10:07:51;;;;;;;;;;;;;;;11.60;59.55;99297.38;5001386;27;102570;-68
2021/11/29 10:10:24;;;;;;;;;;;;;;;11.80;58.93;99290.72;5003062;27;97875;-68
2021/11/29 10:12:53;;;;;;;;;;;;;;;12.07;58.67;99292.59;4990974;27;98135;-67
2021/11/29 10:15:26;;;;;;;;;;;;;;;12.09;58.60;99293.06;5001155;27;98637;-68
2021/11/29 10:17:59;;;;;;;;;;;;;;;12.14;59.02;99289.44;5001133;27;99710;-68
2021/11/29 10:20:29;;;;;;;;;;;;;;;12.26;58.78;99295.94;5003413;27;97823;-68
2021/11/29 10:22:57;;;;;;;;;;;;;;;12.27;58.67;99289.41;4987941;27;97834;-68
2021/11/29 10:25:23;;;;;;;;;;;;;;;12.33;58.80;99281.97;5001498;27;98923;-68
2021/11/29 10:27:49;;;;;;;;;;;;;;;12.39;58.80;99294.25;5001394;27;98137;-68
2021/11/29 10:30:16;;;;;;;;;;;;;;;12.50;58.70;99303.72;5001552;27;110459;-68
2021/11/29 10:32:45;;;;;;;;;;;;;;;12.59;58.63;99286.75;4971882;27;125244;-69
2021/11/29 10:35:13;;;;;;;;;;;;;;;12.69;58.44;99297.31;5000954;27;98962;-67
2021/11/29 10:37:41;;;;;;;;;;;;;;;12.79;58.49;99286.25;5000973;27;98328;-68
2021/11/29 10:40:09;;;;;;;;;;;;;;;12.85;58.46;99285.00;5002400;27;98578;-68
2021/11/29 10:42:35;;;;;;;;;;;;;;;12.92;58.39;99293.47;4992018;27;97798;-67
2021/11/29 10:45:00;;;;;;;;;;;;;;;13.01;58.32;99294.31;4983031;27;97982;-67
2021/11/29 10:47:27;;;;;;;;;;;;;;;13.01;58.55;99294.31;5000285;27;126533;-68
2021/11/29 10:49:55;;;;;;;;;;;;;;;13.13;58.26;99299.13;5001336;27;97969;-68
2021/11/29 10:52:23;;;;;;;;;;;;;;;13.35;57.84;99301.00;4993745;27;98281;-68
2021/11/29 10:54:49;;;;;;;;;;;;;;;13.49;58.08;99304.38;5001325;27;99278;-68
2021/11/29 10:57:16;;;;;;;;;;;;;;;13.54;57.72;99310.75;5000036;27;128115;-68
2021/11/29 10:59:43;;;;;;;;;;;;;;;13.39;58.66;99317.41;5002196;27;97971;-68
2021/11/29 11:02:19;;;;;;;;;;;;;;;13.34;58.51;99314.84;4995670;27;98336;-68
2021/11/29 11:05:00;;;;;;;;;;;;;;;13.25;58.80;99317.53;4999848;27;98560;-68
2021/11/29 11:07:26;;;;;;;;;;;;;;;13.16;59.18;99314.72;5001293;27;97930;-67
2021/11/29 11:09:53;;;;;;;;;;;;;;;13.14;59.24;99321.56;5001766;27;98300;-68
2021/11/29 11:12:19;;;;;;;;;;;;;;;13.04;59.35;99319.94;4992095;27;108391;-68
2021/11/29 11:14:53;;;;;;;;;;;;;;;12.94;59.56;99317.50;4999983;27;98872;-67
2021/11/29 11:17:20;;;;;;;;;;;;;;;12.86;59.55;99319.06;5002048;27;98020;-68
2021/11/29 11:19:50;;;;;;;;;;;;;;;12.81;59.49;99319.19;5001418;27;111666;-68
2021/11/29 11:22:37;;;;;;;;;;;;;;;12.77;59.31;99315.47;4995021;27;98914;-67
2021/11/29 11:25:22;;;;;;;;;;;;;;;12.70;59.82;99323.25;4998652;27;99073;-68
2021/11/29 11:28:04;;;;;;;;;;;;;;;12.67;59.78;99318.47;4985720;27;98143;-68
2021/11/29 11:30:34;;;;;;;;;;;;;;;12.61;59.83;99325.09;5004678;27;97828;-67
2021/11/29 11:33:06;;;;;;;;;;;;;;;12.56;59.98;99323.31;4993879;27;120858;-58
2021/11/29 11:35:34;;;;;;;;;;;;;;;12.50;60.00;99319.94;4996546;27;98829;-58
2021/11/29 11:38:21;;;;;;;;;;;;;;;12.46;59.94;99328.97;5000989;27;111279;-58
2021/11/29 11:40:51;;;;;;;;;;;;;;;12.40;60.25;99328.28;5002446;27;97703;-58
2021/11/29 11:43:19;;;;;;;;;;;;;;;12.37;60.08;99322.69;4993347;27;99011;-58
2021/11/29 11:45:46;;;;;;;;;;;;;;;12.29;60.47;99329.63;5002284;27;99212;-58
2021/11/29 11:48:12;;;;;;;;;;;;;;;12.25;60.21;99336.75;5000930;27;119269;-68
2021/11/29 11:50:40;;;;;;;;;;;;;;;12.21;60.84;99338.47;5002003;27;102925;-58
2021/11/29 11:53:06;;;;;;;;;;;;;;;12.17;60.42;99337.47;4993351;27;98371;-58
2021/11/29 11:55:35;;;;;;;;;;;;;;;12.14;60.39;99340.78;5000119;27;129464;-58
2021/11/29 11:58:05;;;;;;;;;;;;;;;12.11;60.52;99339.50;5001471;27;113146;-68
2021/11/29 12:00:37;;;;;;;;;;;;;;;12.15;60.23;99345.09;4983776;27;98118;-67
2021/11/29 12:03:13;;;;;;;;;;;;;;;12.17;60.21;99323.97;4974629;27;105440;-58
2021/11/29 12:05:47;;;;;;;;;;;;;;;12.18;60.16;99330.97;5002566;27;98872;-58
2021/11/29 12:08:35;;;;;;;;;;;;;;;12.24;59.98;99340.56;5001493;27;98813;-58
2021/11/29 12:11:04;;;;;;;;;;;;;;;12.26;60.09;99333.75;5001974;27;97805;-68
2021/11/29 12:13:39;;;;;;;;;;;;;;;12.27;59.97;99337.25;4993217;27;98882;-58
2021/11/29 12:16:07;;;;;;;;;;;;;;;12.33;60.10;99341.41;4984111;27;119491;-58
2021/11/29 12:18:39;;;;;;;;;;;;;;;12.34;60.11;99336.81;4966113;27;117243;-59
2021/11/29 12:21:18;;;;;;;;;;;;;;;12.32;59.96;99344.44;5003152;27;97810;-67
2021/11/29 12:24:13;;;;;;;;;;;;;;;12.34;60.04;99340.34;4992452;27;99309;-58
2021/11/29 12:26:46;;;;;;;;;;;;;;;12.34;60.01;99340.34;5000294;27;98532;-58
2021/11/29 12:29:24;;;;;;;;;;;;;;;12.34;59.86;99343.03;5001500;27;98123;-67
2021/11/29 12:32:05;;;;;;;;;;;;;;;12.34;60.11;99347.63;4998633;27;97878;-68
2021/11/29 12:34:47;;;;;;;;;;;;;;;12.29;60.34;99349.34;4999717;27;97958;-68
2021/11/29 12:37:19;;;;;;;;;;;;;;;12.20;60.41;99356.56;5001296;27;98360;-58
2021/11/29 12:39:47;;;;;;;;;;;;;;;12.13;60.62;99355.41;5001000;27;97995;-59
2021/11/29 12:44:51;;;;;;;;;;;;;;;11.95;60.78;99357.94;4994701;27;98546;-63
2021/11/29 12:47:25;;;;;;;;;;;;;;;11.92;60.94;99360.44;5001177;27;98601;-68
2021/11/29 12:49:51;;;;;;;;;;;;;;;11.86;60.83;99354.34;5000465;27;107099;-58
2021/11/29 12:52:37;;;;;;;;;;;;;;;11.83;61.01;99363.06;4994649;27;109943;-68